createdAt,value
2018-02-13T00:01:53.524Z,6.70
2018-02-13T00:04:22.956Z,7.50
2018-02-13T00:06:51.592Z,7.00
2018-02-13T00:09:20.122Z,7.37
2018-02-13T00:11:48.510Z,7.87
2018-02-13T00:14:17.158Z,6.73
2018-02-13T00:16:46.582Z,7.57
2018-02-13T00:19:15.754Z,6.93
2018-02-13T00:21:44.258Z,6.70
2018-02-13T00:24:12.631Z,7.20
2018-02-13T00:26:41.533Z,7.43
2018-02-13T00:29:09.913Z,7.13
2018-02-13T00:31:38.333Z,7.23
2018-02-13T00:34:06.828Z,7.53
2018-02-13T00:36:35.217Z,7.70
2018-02-13T00:39:03.269Z,6.73
2018-02-13T00:41:32.701Z,7.60
2018-02-13T00:44:01.353Z,7.03
2018-02-13T00:46:29.865Z,6.60
2018-02-13T00:48:58.251Z,5.43
2018-02-13T00:51:26.645Z,6.47
2018-02-13T00:53:55.224Z,5.43
2018-02-13T00:56:23.616Z,6.97
2018-02-13T00:58:52.274Z,6.47
2018-02-13T01:01:20.720Z,6.85
2018-02-13T01:03:49.110Z,6.73
2018-02-13T01:06:18.518Z,6.90
2018-02-13T01:08:47.184Z,6.82
2018-02-13T01:11:15.823Z,6.70
2018-02-13T01:13:44.684Z,6.18
2018-02-13T01:16:13.066Z,6.93
2018-02-13T01:18:41.454Z,7.43
2018-02-13T01:21:09.820Z,6.60
2018-02-13T01:23:38.401Z,6.70
2018-02-13T01:26:06.796Z,7.03
2018-02-13T01:28:35.294Z,6.50
2018-02-13T01:31:04.438Z,6.63
2018-02-13T01:33:33.853Z,6.15
2018-02-13T01:36:02.470Z,5.90
2018-02-13T01:38:30.857Z,7.50
2018-02-13T01:40:59.993Z,6.70
2018-02-13T01:43:28.381Z,7.43
2018-02-13T01:45:57.586Z,6.73
2018-02-13T01:48:25.962Z,6.77
2018-02-13T01:50:54.745Z,7.97
2018-02-13T01:53:24.064Z,7.15
2018-02-13T01:55:53.239Z,6.30
2018-02-13T01:58:22.550Z,6.97
2018-02-13T02:00:51.197Z,6.77
2018-02-13T02:03:19.867Z,7.00
2018-02-13T02:05:49.629Z,8.40
2018-02-13T02:08:18.287Z,7.33
2018-02-13T02:10:46.982Z,6.67
2018-02-13T02:13:15.406Z,7.20
2018-02-13T02:15:44.783Z,7.87
2018-02-13T02:18:13.162Z,8.00
2018-02-13T02:20:41.323Z,7.17
2018-02-13T02:23:09.979Z,8.23
2018-02-13T02:25:38.596Z,8.13
2018-02-13T02:28:07.200Z,8.33
2018-02-13T02:30:35.815Z,7.70
2018-02-13T02:33:04.462Z,8.80
2018-02-13T02:35:32.859Z,7.90
2018-02-13T02:38:01.514Z,8.40
2018-02-13T02:40:29.919Z,8.70
2018-02-13T02:43:06.169Z,8.20
2018-02-13T02:45:34.631Z,7.40
2018-02-13T02:48:03.391Z,7.82
2018-02-13T02:50:31.808Z,8.40
2018-02-13T02:53:00.199Z,8.23
2018-02-13T02:55:28.604Z,9.13
2018-02-13T02:57:57.141Z,8.70
2018-02-13T03:00:25.757Z,8.73
2018-02-13T03:02:55.010Z,8.50
2018-02-13T03:05:23.686Z,7.70
2018-02-13T03:07:52.066Z,9.17
2018-02-13T03:10:20.448Z,9.33
2018-02-13T03:12:48.826Z,8.67
2018-02-13T03:15:17.510Z,8.23
2018-02-13T03:17:45.914Z,8.67
2018-02-13T03:20:14.309Z,8.30
2018-02-13T03:22:42.889Z,9.33
2018-02-13T03:25:11.953Z,10.60
2018-02-13T03:27:40.610Z,9.20
2018-02-13T03:30:10.032Z,8.60
2018-02-13T03:32:38.343Z,8.40
2018-02-13T03:35:06.921Z,8.53
2018-02-13T03:37:35.306Z,10.17
2018-02-13T03:40:03.549Z,9.90
2018-02-13T03:42:31.969Z,11.43
2018-02-13T03:45:00.627Z,11.30
2018-02-13T03:47:29.285Z,10.50
2018-02-13T03:49:57.791Z,9.83
2018-02-13T03:52:26.204Z,9.70
2018-02-13T03:54:55.593Z,10.47
2018-02-13T03:57:24.758Z,10.93
2018-02-13T03:59:53.424Z,11.15
2018-02-13T04:02:21.809Z,11.50
2018-02-13T04:04:50.209Z,10.73
2018-02-13T04:07:18.878Z,11.60
2018-02-13T04:09:47.546Z,10.05
2018-02-13T04:12:16.204Z,10.65
2018-02-13T04:14:45.670Z,10.73
2018-02-13T04:17:14.330Z,11.93
2018-02-13T04:19:42.715Z,10.73
2018-02-13T04:22:11.098Z,10.00
2018-02-13T04:24:39.994Z,10.63
2018-02-13T04:27:08.645Z,11.27
2018-02-13T04:29:37.042Z,11.67
2018-02-13T04:32:05.425Z,10.80
2018-02-13T04:34:34.145Z,11.50
2018-02-13T04:37:02.891Z,11.48
2018-02-13T04:39:31.589Z,11.32
2018-02-13T04:42:00.065Z,11.20
2018-02-13T04:44:28.629Z,10.93
2018-02-13T04:46:57.503Z,10.55
2018-02-13T04:49:25.931Z,12.17
2018-02-13T04:51:54.612Z,11.43
2018-02-13T04:54:23.321Z,11.10
2018-02-13T04:56:51.985Z,9.93
2018-02-13T04:59:20.582Z,10.70
2018-02-13T05:01:49.240Z,10.85
2018-02-13T05:04:17.637Z,10.73
2018-02-13T05:06:46.306Z,11.27
2018-02-13T05:09:14.698Z,11.50
2018-02-13T05:11:43.884Z,12.00
2018-02-13T05:14:13.083Z,11.80
2018-02-13T05:16:41.816Z,10.40
2018-02-13T05:19:10.751Z,11.20
2018-02-13T05:21:39.154Z,12.40
2018-02-13T05:24:07.812Z,11.80
2018-02-13T05:26:36.440Z,12.67
2018-02-13T05:29:05.587Z,13.40
2018-02-13T05:31:33.990Z,12.70
2018-02-13T05:34:02.646Z,12.70
2018-02-13T05:36:31.046Z,12.90
2018-02-13T05:38:59.885Z,12.90
2018-02-13T05:41:29.313Z,11.95
2018-02-13T05:43:58.617Z,13.27
2018-02-13T05:46:27.298Z,12.90
2018-02-13T05:48:55.678Z,11.83
2018-02-13T05:51:24.193Z,13.83
2018-02-13T05:53:52.581Z,13.20
2018-02-13T05:56:21.233Z,13.07
2018-02-13T05:58:49.625Z,13.37
2018-02-13T06:01:17.947Z,12.35
2018-02-13T06:03:46.346Z,13.17
2018-02-13T06:06:15.037Z,12.57
2018-02-13T06:08:43.706Z,13.75
2018-02-13T06:11:12.085Z,14.53
2018-02-13T06:13:40.788Z,13.97
2018-02-13T06:16:09.448Z,13.40
2018-02-13T06:18:38.687Z,12.83
2018-02-13T06:21:07.344Z,13.18
2018-02-13T06:23:36.239Z,13.30
2018-02-13T06:26:05.432Z,13.37
2018-02-13T06:28:33.856Z,12.83
2018-02-13T06:31:03.114Z,11.83
2018-02-13T06:33:31.643Z,13.03
2018-02-13T06:36:01.182Z,11.70
2018-02-13T06:38:29.918Z,11.10
2018-02-13T06:40:58.614Z,11.10
2018-02-13T06:43:27.050Z,11.40
2018-02-13T06:45:55.436Z,11.13
2018-02-13T06:48:23.822Z,11.43
2018-02-13T06:50:52.542Z,12.30
2018-02-13T06:53:21.201Z,12.03
2018-02-13T06:55:49.874Z,13.45
2018-02-13T06:58:18.258Z,11.37
2018-02-13T07:00:46.930Z,10.43
2018-02-13T07:03:15.389Z,12.20
2018-02-13T07:05:44.827Z,11.80
2018-02-13T07:08:13.212Z,10.33
2018-02-13T07:10:42.607Z,9.67
2018-02-13T07:13:11.289Z,10.25
2018-02-13T07:15:39.977Z,10.05
2018-02-13T07:18:08.689Z,10.37
2018-02-13T07:20:37.849Z,10.20
2018-02-13T07:23:06.519Z,9.45
2018-02-13T07:25:35.353Z,9.90
2018-02-13T07:28:04.497Z,9.40
2018-02-13T07:30:33.925Z,9.60
2018-02-13T07:33:02.443Z,8.85
2018-02-13T07:35:31.193Z,8.90
2018-02-13T07:37:59.572Z,8.80
2018-02-13T07:40:28.774Z,8.23
2018-02-13T07:42:57.173Z,9.27
2018-02-13T07:45:25.837Z,8.40
2018-02-13T07:47:54.677Z,8.00
2018-02-13T07:50:24.089Z,8.20
2018-02-13T07:52:52.437Z,8.10
2018-02-13T07:55:21.065Z,8.27
2018-02-13T07:57:49.885Z,7.40
2018-02-13T08:00:18.629Z,7.83
2018-02-13T08:02:48.364Z,7.88
2018-02-13T08:05:16.793Z,6.43
2018-02-13T08:07:45.357Z,7.57
2018-02-13T08:10:14.124Z,7.67
2018-02-13T08:12:42.678Z,7.57
2018-02-13T08:15:11.314Z,7.25
2018-02-13T08:17:39.954Z,7.60
2018-02-13T08:20:08.606Z,6.10
2018-02-13T08:22:37.238Z,7.33
2018-02-13T08:25:06.538Z,7.37
2018-02-13T08:27:35.006Z,6.73
2018-02-13T08:30:03.809Z,6.60
2018-02-13T08:32:32.330Z,7.40
2018-02-13T08:35:01.762Z,7.03
2018-02-13T08:37:30.488Z,7.50
2018-02-13T08:39:59.931Z,7.00
2018-02-13T08:42:28.318Z,7.33
2018-02-13T08:44:56.705Z,8.20
2018-02-13T08:47:25.069Z,7.60
2018-02-13T08:49:54.497Z,7.23
2018-02-13T08:52:22.869Z,7.43
2018-02-13T08:54:51.630Z,6.40
2018-02-13T08:57:20.002Z,6.67
2018-02-13T08:59:48.389Z,6.10
2018-02-13T09:02:16.765Z,7.70
2018-02-13T09:04:45.975Z,6.27
2018-02-13T09:07:14.621Z,7.43
2018-02-13T09:09:43.088Z,6.07
2018-02-13T09:12:12.331Z,5.80
2018-02-13T09:14:40.754Z,4.83
2018-02-13T09:17:09.290Z,6.30
2018-02-13T09:19:37.898Z,5.47
2018-02-13T09:22:06.282Z,6.27
2018-02-13T09:24:34.682Z,4.67
2018-02-13T09:27:04.133Z,5.53
2018-02-13T09:29:33.554Z,6.10
2018-02-13T09:32:01.738Z,6.43
2018-02-13T09:34:30.038Z,5.80
2018-02-13T09:36:59.186Z,4.97
2018-02-13T09:39:28.594Z,6.25
2018-02-13T09:41:57.238Z,5.30
2018-02-13T09:44:26.378Z,5.93
2018-02-13T09:46:54.588Z,5.20
2018-02-13T09:49:23.234Z,6.03
2018-02-13T09:51:52.440Z,5.10
2018-02-13T09:54:21.090Z,4.85
2018-02-13T09:56:49.477Z,5.20
2018-02-13T09:59:18.878Z,5.03
2018-02-13T10:01:48.373Z,6.40
2018-02-13T10:04:16.750Z,6.90
2018-02-13T10:06:45.133Z,7.73
2018-02-13T10:09:14.541Z,7.83
2018-02-13T10:11:43.013Z,4.83
2018-02-13T10:14:11.646Z,3.90
2018-02-13T10:16:40.125Z,4.30
2018-02-13T10:19:08.611Z,5.83
2018-02-13T10:21:36.905Z,7.30
2018-02-13T10:24:06.041Z,5.30
2018-02-13T10:26:35.341Z,5.97
2018-02-13T10:29:03.708Z,6.13
2018-02-13T10:31:33.045Z,6.23
2018-02-13T10:34:01.421Z,6.30
2018-02-13T10:36:30.081Z,6.05
2018-02-13T10:38:59.485Z,4.82
2018-02-13T10:41:28.147Z,4.70
2018-02-13T10:43:56.569Z,5.60
2018-02-13T10:46:25.231Z,5.62
2018-02-13T10:48:54.632Z,5.45
2018-02-13T10:51:23.094Z,5.60
2018-02-13T10:53:51.972Z,5.53
2018-02-13T10:56:20.416Z,5.10
2018-02-13T10:58:48.862Z,5.47
2018-02-13T11:01:22.605Z,4.83
2018-02-13T11:03:50.983Z,4.60
2018-02-13T11:06:19.382Z,5.10
2018-02-13T11:08:48.014Z,3.97
2018-02-13T11:11:16.686Z,5.13
2018-02-13T11:13:46.101Z,4.30
2018-02-13T11:16:14.481Z,4.03
2018-02-13T11:18:43.018Z,4.40
2018-02-13T11:21:11.560Z,3.60
2018-02-13T11:23:40.734Z,4.20
2018-02-13T11:26:09.333Z,3.30
2018-02-13T11:28:37.703Z,4.07
2018-02-13T11:31:06.092Z,3.00
2018-02-13T11:33:34.734Z,3.67
2018-02-13T11:36:04.058Z,3.00
2018-02-13T11:38:32.432Z,3.70
2018-02-13T11:41:01.831Z,2.80
2018-02-13T11:43:31.112Z,3.67
2018-02-13T11:45:59.590Z,3.40
2018-02-13T11:48:28.246Z,3.73
2018-02-13T11:50:57.378Z,2.70
2018-02-13T11:53:26.042Z,4.10
2018-02-13T11:55:54.414Z,4.65
2018-02-13T11:58:22.813Z,4.60
2018-02-13T12:00:51.636Z,5.00
2018-02-13T12:03:20.010Z,4.60
2018-02-13T12:05:49.286Z,3.75
2018-02-13T12:08:17.781Z,3.33
2018-02-13T12:10:46.157Z,3.40
2018-02-13T12:13:15.593Z,3.90
2018-02-13T12:15:44.225Z,4.07
2018-02-13T12:18:13.439Z,4.30
2018-02-13T12:20:42.141Z,4.30
2018-02-13T12:23:10.830Z,4.30
2018-02-13T12:25:42.647Z,4.65
2018-02-13T12:28:10.377Z,4.00
2018-02-13T12:30:39.245Z,4.50
2018-02-13T12:33:07.361Z,4.53
2018-02-13T12:35:36.833Z,3.80
2018-02-13T12:38:08.321Z,3.55
2018-02-13T12:40:36.735Z,3.47
2018-02-13T12:43:05.434Z,2.53
2018-02-13T12:45:34.406Z,3.30
2018-02-13T12:48:04.046Z,2.53
2018-02-13T12:50:32.673Z,4.07
2018-02-13T12:53:00.845Z,4.93
2018-02-13T12:55:28.889Z,5.40
2018-02-13T12:57:57.701Z,4.47
2018-02-13T13:00:26.335Z,5.23
2018-02-13T13:02:54.965Z,4.32
2018-02-13T13:05:23.161Z,5.60
2018-02-13T13:07:52.589Z,4.70
2018-02-13T13:10:20.893Z,5.00
2018-02-13T13:12:49.925Z,5.37
2018-02-13T13:15:18.400Z,5.37
2018-02-13T13:17:46.791Z,5.00
2018-02-13T13:20:15.192Z,4.77
2018-02-13T13:22:44.144Z,4.60
2018-02-13T13:25:12.802Z,3.83
2018-02-13T13:27:41.494Z,4.40
2018-02-13T13:30:09.936Z,5.40
2018-02-13T13:32:38.376Z,4.47
2018-02-13T13:35:06.850Z,4.70
2018-02-13T13:37:35.034Z,4.13
2018-02-13T13:40:03.726Z,5.07
2018-02-13T13:42:32.362Z,4.17
2018-02-13T13:45:01.001Z,3.83
2018-02-13T13:47:29.657Z,3.70
2018-02-13T13:49:58.022Z,3.30
2018-02-13T13:52:26.685Z,2.77
2018-02-13T13:54:55.320Z,3.42
2018-02-13T13:57:24.393Z,3.40
2018-02-13T13:59:53.811Z,3.25
2018-02-13T14:02:23.085Z,4.27
2018-02-13T14:04:51.681Z,3.23
2018-02-13T14:07:20.952Z,1.90
2018-02-13T14:09:50.496Z,2.30
2018-02-13T14:12:18.683Z,2.20
2018-02-13T14:14:47.071Z,2.90
2018-02-13T14:17:15.253Z,3.57
2018-02-13T14:19:44.393Z,2.93
2018-02-13T14:22:12.761Z,3.10
2018-02-13T14:24:41.413Z,3.03
2018-02-13T14:27:09.700Z,3.10
2018-02-13T14:29:38.145Z,2.97
2018-02-13T14:32:06.588Z,3.25
2018-02-13T14:34:34.997Z,3.10
2018-02-13T14:37:03.384Z,3.20
2018-02-13T14:39:32.066Z,3.45
2018-02-13T14:42:00.995Z,2.00
2018-02-13T14:44:29.526Z,1.63
2018-02-13T14:46:57.905Z,1.60
2018-02-13T14:49:26.290Z,2.13
2018-02-13T14:51:54.879Z,2.63
2018-02-13T14:54:23.258Z,3.10
2018-02-13T14:56:51.637Z,3.10
2018-02-13T14:59:20.365Z,2.90
2018-02-13T15:01:48.753Z,3.67
2018-02-13T15:04:17.889Z,3.50
2018-02-13T15:06:46.459Z,3.33
2018-02-13T15:09:15.889Z,4.20
2018-02-13T15:11:44.337Z,3.60
2018-02-13T15:14:13.377Z,3.57
2018-02-13T15:16:41.589Z,4.17
2018-02-13T15:19:10.321Z,3.03
2018-02-13T15:21:39.153Z,4.20
2018-02-13T15:24:08.691Z,4.47
2018-02-13T15:26:37.137Z,4.37
2018-02-13T15:29:05.839Z,4.35
2018-02-13T15:31:35.849Z,4.30
2018-02-13T15:34:04.543Z,4.80
2018-02-13T15:36:32.957Z,4.30
2018-02-13T15:39:01.548Z,5.00
2018-02-13T15:41:29.929Z,4.30
2018-02-13T15:43:58.578Z,5.30
2018-02-13T15:46:27.790Z,4.47
2018-02-13T15:48:56.202Z,5.43
2018-02-13T15:51:24.940Z,6.75
2018-02-13T15:53:53.343Z,5.60
2018-02-13T15:56:21.718Z,5.53
2018-02-13T15:58:50.402Z,5.97
2018-02-13T16:01:18.922Z,6.20
2018-02-13T16:03:48.062Z,6.23
2018-02-13T16:06:16.512Z,6.80
2018-02-13T16:08:45.238Z,6.40
2018-02-13T16:11:13.906Z,7.07
2018-02-13T16:13:42.283Z,6.90
2018-02-13T16:16:10.856Z,6.43
2018-02-13T16:18:40.284Z,7.72
2018-02-13T16:21:09.270Z,7.13
2018-02-13T16:23:37.945Z,7.35
2018-02-13T16:26:06.601Z,7.85
2018-02-13T16:28:36.034Z,8.33
2018-02-13T16:31:04.617Z,8.07
2018-02-13T16:33:33.004Z,7.60
2018-02-13T16:36:01.387Z,7.73
2018-02-13T16:38:29.851Z,8.07
2018-02-13T16:40:59.273Z,7.90
2018-02-13T16:43:27.924Z,8.20
2018-02-13T16:45:56.299Z,7.60
2018-02-13T16:48:25.221Z,8.55
2018-02-13T16:50:53.889Z,8.40
2018-02-13T16:53:22.616Z,8.10
2018-02-13T16:55:51.425Z,8.15
2018-02-13T16:58:20.225Z,8.93
2018-02-13T17:00:48.633Z,8.70
2018-02-13T17:03:17.291Z,8.90
2018-02-13T17:05:45.674Z,8.57
2018-02-13T17:08:14.160Z,8.87
2018-02-13T17:10:42.550Z,8.10
2018-02-13T17:13:10.874Z,8.30
2018-02-13T17:15:39.258Z,8.83
2018-02-13T17:18:08.394Z,8.40
2018-02-13T17:20:38.364Z,8.70
2018-02-13T17:23:06.806Z,9.30
2018-02-13T17:25:35.470Z,9.30
2018-02-13T17:28:04.682Z,8.80
2018-02-13T17:30:33.153Z,9.87
2018-02-13T17:33:01.533Z,8.27
2018-02-13T17:35:29.953Z,7.83
2018-02-13T17:37:58.473Z,8.70
2018-02-13T17:40:27.909Z,10.00
2018-02-13T17:42:56.354Z,9.90
2018-02-13T17:45:25.022Z,8.73
2018-02-13T17:47:54.161Z,8.90
2018-02-13T17:50:22.647Z,8.80
2018-02-13T17:52:51.049Z,8.43
2018-02-13T17:55:19.592Z,8.60
2018-02-13T17:57:48.333Z,9.00
2018-02-13T18:00:17.521Z,9.37
2018-02-13T18:02:46.753Z,9.10
2018-02-13T18:05:16.369Z,9.38
2018-02-13T18:07:45.844Z,9.00
2018-02-13T18:10:14.369Z,10.43
2018-02-13T18:12:42.761Z,9.47
2018-02-13T18:15:11.133Z,10.83
2018-02-13T18:17:39.672Z,9.00
2018-02-13T18:20:08.074Z,8.55
2018-02-13T18:22:36.732Z,8.97
2018-02-13T18:25:05.318Z,8.37
2018-02-13T18:27:34.458Z,9.97
2018-02-13T18:30:03.635Z,9.10
2018-02-13T18:32:32.063Z,9.47
2018-02-13T18:35:00.745Z,11.30
2018-02-13T18:37:29.808Z,9.30
2018-02-13T18:39:58.681Z,10.30
2018-02-13T18:42:27.376Z,10.50
2018-02-13T18:44:56.794Z,9.80
2018-02-13T18:47:25.298Z,9.60
2018-02-13T18:49:54.670Z,10.37
2018-02-13T18:54:53.172Z,10.60
2018-02-13T18:57:22.033Z,11.85
2018-02-13T18:59:50.594Z,9.30
2018-02-13T19:02:19.258Z,9.70
2018-02-13T19:04:47.928Z,10.77
2018-02-13T19:07:16.598Z,10.82
2018-02-13T19:09:44.998Z,10.60
2018-02-13T19:12:13.651Z,10.80
2018-02-13T19:14:42.038Z,10.67
2018-02-13T19:19:39.070Z,10.87
2018-02-13T19:22:07.761Z,11.07
2018-02-13T19:24:37.189Z,10.63
2018-02-13T19:27:05.577Z,10.53
2018-02-13T19:29:34.141Z,10.87
2018-02-13T19:32:02.655Z,10.37
2018-02-13T19:34:31.245Z,11.10
2018-02-13T19:36:59.914Z,10.32
2018-02-13T19:39:28.632Z,10.77
2018-02-13T19:41:57.087Z,10.50
2018-02-13T19:44:25.769Z,12.98
2018-02-13T19:46:54.473Z,11.37
2018-02-13T19:49:23.616Z,11.20
2018-02-13T19:51:53.010Z,11.10
2018-02-13T19:54:21.690Z,11.10
2018-02-13T19:56:50.175Z,9.90
2018-02-13T19:59:19.629Z,11.48
2018-02-13T20:01:48.795Z,10.93
2018-02-13T20:04:17.652Z,12.30
2018-02-13T20:06:46.341Z,10.23
2018-02-13T20:09:14.736Z,11.20
2018-02-13T20:11:43.142Z,11.33
2018-02-13T20:14:11.531Z,11.60
2018-02-13T20:16:40.162Z,11.30
2018-02-13T20:19:08.686Z,13.70
2018-02-13T20:21:37.355Z,12.00
2018-02-13T20:24:05.943Z,10.70
2018-02-13T20:26:34.498Z,12.20
2018-02-13T20:29:03.158Z,12.30
2018-02-13T20:31:31.728Z,10.93
2018-02-13T20:34:00.358Z,10.47
2018-02-13T20:36:29.428Z,10.63
2018-02-13T20:38:57.854Z,11.40
2018-02-13T20:41:27.122Z,10.83
2018-02-13T20:43:55.836Z,12.30
2018-02-13T20:46:24.500Z,11.60
2018-02-13T20:48:52.895Z,11.67
2018-02-13T20:51:21.587Z,11.33
2018-02-13T20:53:50.080Z,12.60
2018-02-13T20:56:19.909Z,11.73
2018-02-13T20:58:49.337Z,12.15
2018-02-13T21:01:17.730Z,11.30
2018-02-13T21:03:46.398Z,11.77
2018-02-13T21:06:18.034Z,13.33
2018-02-13T21:08:46.437Z,11.97
2018-02-13T21:11:14.528Z,12.30
2018-02-13T21:13:43.834Z,12.70
2018-02-13T21:16:12.222Z,11.60
2018-02-13T21:18:40.901Z,12.15
2018-02-13T21:21:09.365Z,12.70
2018-02-13T21:23:37.883Z,11.83
2018-02-13T21:26:06.717Z,11.80
2018-02-13T21:28:35.143Z,13.13
2018-02-13T21:31:03.497Z,12.60
2018-02-13T21:33:32.473Z,12.45
2018-02-13T21:36:01.141Z,11.68
2018-02-13T21:38:29.845Z,12.47
2018-02-13T21:40:58.507Z,13.48
2018-02-13T21:43:27.143Z,12.00
2018-02-13T21:45:54.870Z,12.73
2018-02-13T21:48:23.387Z,13.00
2018-02-13T21:50:52.043Z,13.85
2018-02-13T21:53:21.233Z,12.90
2018-02-13T21:55:49.618Z,11.93
2018-02-13T21:58:18.230Z,13.67
2018-02-13T22:00:46.966Z,13.07
2018-02-13T22:03:15.626Z,12.03
2018-02-13T22:05:44.334Z,13.55
2018-02-13T22:08:12.722Z,12.80
2018-02-13T22:10:41.134Z,13.60
2018-02-13T22:13:09.672Z,11.80
2018-02-13T22:15:38.289Z,13.00
2018-02-13T22:18:06.684Z,12.93
2018-02-13T22:20:35.354Z,14.68
2018-02-13T22:23:03.749Z,13.35
2018-02-13T22:25:32.141Z,13.97
2018-02-13T22:28:00.821Z,13.57
2018-02-13T22:30:29.997Z,13.80
2018-02-13T22:32:58.395Z,13.97
2018-02-13T22:35:27.758Z,14.80
2018-02-13T22:37:55.961Z,14.57
2018-02-13T22:40:24.030Z,13.77
2018-02-13T22:42:52.707Z,14.80
2018-02-13T22:45:21.369Z,13.43
2018-02-13T22:47:50.518Z,12.80
2018-02-13T22:50:19.150Z,13.10
2018-02-13T22:52:47.954Z,13.85
2018-02-13T22:55:16.614Z,13.10
2018-02-13T22:57:45.290Z,12.77
2018-02-13T23:00:13.334Z,14.87
2018-02-13T23:02:42.310Z,14.27
2018-02-13T23:05:10.966Z,14.30
2018-02-13T23:07:39.498Z,14.90
2018-02-13T23:10:08.157Z,12.95
2018-02-13T23:12:37.322Z,15.00
2018-02-13T23:15:05.701Z,13.63
2018-02-13T23:17:34.366Z,13.95
2018-02-13T23:20:04.139Z,13.90
2018-02-13T23:22:33.398Z,15.00
2018-02-13T23:25:02.078Z,15.80
2018-02-13T23:27:30.645Z,16.33
2018-02-13T23:29:59.026Z,14.43
2018-02-13T23:32:27.409Z,12.97
2018-02-13T23:34:55.849Z,13.80
2018-02-13T23:37:25.209Z,13.27
2018-02-13T23:39:53.605Z,12.67
2018-02-13T23:42:22.761Z,14.07
2018-02-13T23:44:51.429Z,14.77
2018-02-13T23:47:20.903Z,14.13
2018-02-13T23:49:49.335Z,12.50
2018-02-13T23:52:17.805Z,11.90
2018-02-13T23:54:46.393Z,12.20
2018-02-13T23:57:14.781Z,12.80
2018-02-13T23:59:43.442Z,12.55
